createdAt,value
2023-05-19T00:00:57.277Z,44.90
2023-05-19T00:03:24.380Z,44.92
2023-05-19T00:05:53.126Z,44.90
2023-05-19T00:08:20.115Z,45.22
2023-05-19T00:10:47.491Z,45.22
2023-05-19T00:13:14.729Z,45.28
2023-05-19T00:15:42.045Z,45.34
2023-05-19T00:18:09.425Z,45.21
2023-05-19T00:20:37.528Z,45.21
2023-05-19T00:23:04.278Z,45.06
2023-05-19T00:25:31.306Z,45.01
2023-05-19T00:27:58.860Z,44.98
2023-05-19T00:30:26.247Z,44.82
2023-05-19T00:32:53.525Z,44.79
2023-05-19T00:35:21.224Z,44.69
2023-05-19T00:37:48.270Z,44.55
2023-05-19T00:40:15.130Z,44.51
2023-05-19T00:42:42.094Z,44.42
2023-05-19T00:45:09.664Z,44.31
2023-05-19T00:47:36.786Z,44.02
2023-05-19T00:50:04.486Z,43.96
2023-05-19T00:52:31.543Z,43.90
2023-05-19T00:54:58.829Z,43.83
2023-05-19T00:57:26.669Z,43.54
2023-05-19T00:59:53.535Z,43.45
2023-05-19T01:02:20.900Z,43.37
2023-05-19T01:04:48.336Z,43.12
2023-05-19T01:07:18.157Z,43.12
2023-05-19T01:09:45.479Z,43.24
2023-05-19T01:12:12.985Z,43.24
2023-05-19T01:14:40.344Z,43.01
2023-05-19T01:17:41.876Z,42.93
2023-05-19T01:20:15.856Z,42.99
2023-05-19T01:22:45.437Z,42.92
2023-05-19T01:25:31.097Z,42.93
2023-05-19T01:28:09.769Z,42.70
2023-05-19T01:30:40.467Z,42.77
2023-05-19T01:33:09.081Z,42.99
2023-05-19T01:35:37.709Z,43.23
2023-05-19T01:38:04.970Z,43.40
2023-05-19T01:40:32.157Z,43.64
2023-05-19T01:42:59.929Z,43.81
2023-05-19T01:45:29.837Z,43.85
2023-05-19T01:47:58.871Z,44.00
2023-05-19T01:50:25.859Z,43.93
2023-05-19T01:52:52.819Z,43.82
2023-05-19T01:55:20.796Z,43.60
2023-05-19T01:58:17.114Z,43.71
2023-05-19T02:01:19.810Z,43.92
2023-05-19T02:04:23.850Z,43.72
2023-05-19T02:06:53.361Z,43.88
2023-05-19T02:09:32.283Z,43.95
2023-05-19T02:12:01.911Z,44.16
2023-05-19T02:14:28.972Z,44.44
2023-05-19T02:16:56.950Z,44.39
2023-05-19T02:19:25.826Z,44.15
2023-05-19T02:21:54.047Z,44.29
2023-05-19T02:24:22.243Z,44.34
2023-05-19T02:26:50.104Z,44.31
2023-05-19T02:29:19.467Z,44.12
2023-05-19T02:31:46.570Z,44.30
2023-05-19T02:34:13.501Z,44.29
2023-05-19T02:36:42.559Z,44.50
2023-05-19T02:39:10.419Z,44.82
2023-05-19T02:41:38.149Z,45.03
2023-05-19T02:44:05.165Z,45.19
2023-05-19T02:46:32.201Z,45.28
2023-05-19T02:48:59.223Z,45.42
2023-05-19T02:51:26.324Z,45.48
2023-05-19T02:53:53.273Z,45.53
2023-05-19T02:56:21.135Z,45.46
2023-05-19T02:58:47.940Z,45.47
2023-05-19T03:01:15.290Z,45.57
2023-05-19T03:03:42.475Z,45.56
2023-05-19T03:06:09.407Z,45.59
2023-05-19T03:08:36.737Z,45.56
2023-05-19T03:11:03.537Z,45.61
2023-05-19T03:13:31.339Z,45.54
2023-05-19T03:15:58.636Z,45.43
2023-05-19T03:18:26.008Z,45.43
2023-05-19T03:20:55.908Z,45.48
2023-05-19T03:23:22.855Z,45.54
2023-05-19T03:25:50.256Z,45.41
2023-05-19T03:28:18.093Z,45.41
2023-05-19T03:30:45.815Z,45.25
2023-05-19T03:33:17.406Z,45.26
2023-05-19T03:35:44.735Z,45.10
2023-05-19T03:38:12.402Z,44.89
2023-05-19T03:40:40.902Z,44.75
2023-05-19T03:43:09.593Z,44.85
2023-05-19T03:45:42.095Z,44.82
2023-05-19T03:48:32.656Z,44.60
2023-05-19T03:51:22.128Z,44.51
2023-05-19T03:53:50.530Z,44.18
2023-05-19T03:56:20.181Z,44.04
2023-05-19T03:58:47.666Z,43.96
2023-05-19T04:01:15.031Z,43.83
2023-05-19T04:03:41.967Z,43.89
2023-05-19T04:06:08.977Z,43.89
2023-05-19T04:08:36.916Z,43.56
2023-05-19T04:11:03.893Z,43.65
2023-05-19T04:13:34.218Z,43.44
2023-05-19T04:16:01.144Z,43.37
2023-05-19T04:18:29.149Z,43.34
2023-05-19T04:20:56.378Z,43.27
2023-05-19T04:23:23.214Z,42.71
2023-05-19T04:25:50.303Z,42.45
2023-05-19T04:28:17.522Z,42.46
2023-05-19T04:30:46.138Z,42.16
2023-05-19T04:33:13.599Z,42.08
2023-05-19T04:35:40.883Z,41.75
2023-05-19T04:38:09.543Z,41.22
2023-05-19T04:40:39.759Z,41.29
2023-05-19T04:43:06.810Z,40.86
2023-05-19T04:45:33.927Z,40.50
2023-05-19T04:48:02.158Z,40.37
2023-05-19T04:50:31.882Z,40.13
2023-05-19T04:52:59.176Z,39.35
2023-05-19T04:55:26.580Z,39.77
2023-05-19T04:57:53.706Z,38.69
2023-05-19T05:00:21.232Z,38.93
2023-05-19T05:03:04.575Z,38.71
2023-05-19T05:05:32.288Z,38.02
2023-05-19T05:07:59.139Z,37.91
2023-05-19T05:10:27.825Z,38.08
2023-05-19T05:12:55.390Z,37.66
2023-05-19T05:15:23.772Z,37.63
2023-05-19T05:17:51.612Z,37.76
2023-05-19T05:20:19.313Z,37.69
2023-05-19T05:22:46.957Z,37.72
2023-05-19T05:25:15.801Z,37.42
2023-05-19T05:27:43.401Z,37.16
2023-05-19T05:30:10.907Z,37.14
2023-05-19T05:32:39.276Z,36.89
2023-05-19T05:35:10.674Z,36.43
2023-05-19T05:37:38.662Z,36.13
2023-05-19T05:40:06.592Z,36.25
2023-05-19T05:42:33.622Z,36.03
2023-05-19T05:45:00.405Z,35.95
2023-05-19T05:47:27.778Z,35.76
2023-05-19T05:49:55.296Z,35.92
2023-05-19T05:52:22.492Z,35.10
2023-05-19T05:54:50.210Z,34.94
2023-05-19T05:57:18.616Z,35.53
2023-05-19T05:59:46.590Z,35.57
2023-05-19T06:02:13.668Z,35.35
2023-05-19T06:04:40.556Z,35.15
2023-05-19T06:07:07.788Z,34.93
2023-05-19T06:09:39.756Z,34.80
2023-05-19T06:12:07.683Z,34.32
2023-05-19T06:14:42.016Z,33.90
2023-05-19T06:17:16.327Z,33.88
2023-05-19T06:19:43.382Z,33.11
2023-05-19T06:22:10.346Z,32.50
2023-05-19T06:24:39.466Z,32.24
2023-05-19T06:27:08.838Z,31.16
2023-05-19T06:29:35.740Z,31.18
2023-05-19T06:32:03.934Z,31.36
2023-05-19T06:34:31.710Z,30.61
2023-05-19T06:36:58.762Z,30.80
2023-05-19T06:39:25.742Z,31.31
2023-05-19T06:41:52.490Z,31.91
2023-05-19T06:44:38.057Z,31.75
2023-05-19T06:47:09.221Z,31.25
2023-05-19T06:49:37.238Z,31.08
2023-05-19T06:52:04.862Z,30.65
2023-05-19T06:54:31.800Z,31.12
2023-05-19T06:56:58.751Z,31.03
2023-05-19T06:59:25.734Z,31.13
2023-05-19T07:01:53.138Z,31.42
2023-05-19T07:04:19.993Z,31.46
2023-05-19T07:06:47.308Z,31.54
2023-05-19T07:09:14.324Z,31.24
2023-05-19T07:11:41.941Z,31.35
2023-05-19T07:14:10.174Z,31.46
2023-05-19T07:16:37.050Z,31.47
2023-05-19T07:19:05.514Z,31.97
2023-05-19T07:21:33.016Z,31.44
2023-05-19T07:24:00.157Z,31.61
2023-05-19T07:26:28.508Z,31.67
2023-05-19T07:28:55.335Z,31.79
2023-05-19T07:31:22.108Z,31.79
2023-05-19T07:33:49.101Z,32.06
2023-05-19T07:36:16.951Z,32.02
2023-05-19T07:38:47.586Z,32.23
2023-05-19T07:41:14.536Z,31.96
2023-05-19T07:43:42.488Z,32.10
2023-05-19T07:46:09.500Z,31.65
2023-05-19T07:48:38.335Z,32.13
2023-05-19T07:51:05.353Z,32.20
2023-05-19T07:53:32.331Z,32.28
2023-05-19T07:55:59.267Z,31.48
2023-05-19T07:58:26.236Z,31.58
2023-05-19T08:00:53.083Z,31.80
2023-05-19T08:03:20.121Z,31.62
2023-05-19T08:05:47.286Z,31.69
2023-05-19T08:08:18.919Z,31.94
2023-05-19T08:10:46.100Z,32.21
2023-05-19T08:13:13.011Z,32.13
2023-05-19T08:15:40.672Z,31.98
2023-05-19T08:18:12.328Z,32.46
2023-05-19T08:20:39.328Z,32.20
2023-05-19T08:23:06.493Z,31.81
2023-05-19T08:25:33.335Z,31.42
2023-05-19T08:28:00.638Z,31.26
2023-05-19T08:30:27.955Z,30.92
2023-05-19T08:32:54.965Z,30.72
2023-05-19T08:35:21.970Z,30.57
2023-05-19T08:37:49.009Z,29.12
2023-05-19T08:40:16.994Z,29.37
2023-05-19T08:42:45.325Z,29.82
2023-05-19T08:45:12.526Z,29.79
2023-05-19T08:47:43.154Z,29.69
2023-05-19T08:50:10.491Z,29.97
2023-05-19T08:52:51.858Z,29.74
2023-05-19T08:55:58.452Z,29.75
2023-05-19T08:58:26.867Z,29.75
2023-05-19T09:00:55.921Z,29.23
2023-05-19T09:03:23.774Z,29.32
2023-05-19T09:05:51.436Z,29.27
2023-05-19T09:08:18.439Z,28.89
2023-05-19T09:10:45.785Z,28.46
2023-05-19T09:13:12.516Z,28.47
2023-05-19T09:15:41.015Z,28.39
2023-05-19T09:18:11.993Z,28.34
2023-05-19T09:20:39.596Z,28.06
2023-05-19T09:23:07.824Z,27.62
2023-05-19T09:25:53.069Z,28.46
2023-05-19T09:28:34.554Z,28.98
2023-05-19T09:31:05.421Z,28.26
2023-05-19T09:33:37.779Z,27.66
2023-05-19T09:36:06.024Z,28.09
2023-05-19T09:38:33.128Z,27.70
2023-05-19T09:41:00.396Z,27.20
2023-05-19T09:43:35.036Z,27.66
2023-05-19T09:46:12.150Z,27.05
2023-05-19T09:48:41.779Z,27.57
2023-05-19T09:51:11.288Z,27.83
2023-05-19T09:53:38.364Z,27.77
2023-05-19T09:56:05.696Z,27.93
2023-05-19T09:58:36.776Z,28.32
2023-05-19T10:01:04.388Z,28.52
2023-05-19T10:03:34.820Z,28.19
2023-05-19T10:06:03.415Z,28.30
2023-05-19T10:08:31.410Z,28.36
2023-05-19T10:10:58.507Z,28.93
2023-05-19T10:13:26.016Z,29.09
2023-05-19T10:18:23.912Z,29.02
2023-05-19T10:20:50.968Z,28.78
2023-05-19T10:23:18.918Z,28.82
2023-05-19T10:25:45.855Z,28.80
2023-05-19T10:28:14.421Z,29.38
2023-05-19T10:30:44.497Z,28.99
2023-05-19T10:33:16.845Z,29.24
2023-05-19T10:35:50.738Z,29.07
2023-05-19T10:38:56.195Z,29.23
2023-05-19T10:42:02.050Z,29.53
2023-05-19T10:44:53.531Z,28.91
2023-05-19T10:47:26.734Z,27.96
2023-05-19T10:49:53.810Z,26.96
2023-05-19T10:52:29.009Z,26.67
2023-05-19T10:54:55.999Z,27.32
2023-05-19T10:57:27.460Z,27.30
2023-05-19T10:59:55.840Z,27.12
2023-05-19T11:02:38.963Z,26.89
2023-05-19T11:05:17.573Z,26.96
2023-05-19T11:07:54.587Z,26.97
2023-05-19T11:10:24.675Z,27.16
2023-05-19T11:15:18.920Z,27.18
2023-05-19T11:17:47.922Z,27.14
2023-05-19T11:20:25.199Z,27.15
2023-05-19T11:23:09.123Z,27.62
2023-05-19T11:25:50.680Z,27.45
2023-05-19T11:28:18.807Z,27.68
2023-05-19T11:30:49.816Z,28.18
2023-05-19T11:33:20.343Z,28.31
2023-05-19T11:35:49.292Z,28.17
2023-05-19T11:38:20.078Z,27.61
2023-05-19T11:40:49.076Z,28.29
2023-05-19T11:43:16.101Z,27.05
2023-05-19T11:45:43.078Z,27.43
2023-05-19T11:48:13.595Z,27.39
2023-05-19T11:50:41.020Z,27.42
2023-05-19T11:53:07.923Z,27.63
2023-05-19T11:55:34.912Z,27.67
2023-05-19T11:58:05.522Z,27.71
2023-05-19T12:00:38.630Z,27.50
2023-05-19T12:03:05.937Z,27.06
2023-05-19T12:05:39.913Z,26.62
2023-05-19T12:08:09.815Z,26.53
2023-05-19T12:10:37.738Z,26.70
2023-05-19T12:13:05.714Z,27.09
2023-05-19T12:15:33.457Z,27.15
2023-05-19T12:18:01.421Z,27.23
2023-05-19T12:20:31.493Z,27.16
2023-05-19T12:22:58.881Z,27.17
2023-05-19T12:25:25.950Z,27.68
2023-05-19T12:27:58.125Z,27.14
2023-05-19T12:30:28.196Z,27.51
2023-05-19T12:32:57.029Z,26.81
2023-05-19T12:35:32.993Z,27.25
2023-05-19T12:38:06.309Z,27.62
2023-05-19T12:40:34.640Z,26.61
2023-05-19T12:43:01.991Z,26.38
2023-05-19T12:45:31.841Z,26.87
2023-05-19T12:47:59.008Z,27.38
2023-05-19T12:50:30.660Z,26.48
2023-05-19T12:52:59.241Z,26.61
2023-05-19T12:55:26.262Z,26.65
2023-05-19T12:57:59.136Z,26.60
2023-05-19T13:00:28.336Z,26.91
2023-05-19T13:03:00.963Z,26.50
2023-05-19T13:05:28.734Z,25.47
2023-05-19T13:08:01.680Z,24.20
2023-05-19T13:10:29.122Z,24.83
2023-05-19T13:12:56.448Z,24.78
2023-05-19T13:15:24.580Z,25.12
2023-05-19T13:17:51.797Z,25.55
2023-05-19T13:20:19.436Z,25.87
2023-05-19T13:22:47.704Z,26.14
2023-05-19T13:25:14.597Z,26.21
2023-05-19T13:27:41.655Z,26.07
2023-05-19T13:30:09.167Z,26.36
2023-05-19T13:32:39.250Z,26.19
2023-05-19T13:35:06.648Z,26.18
2023-05-19T13:37:33.532Z,26.15
2023-05-19T13:40:00.950Z,26.55
2023-05-19T13:42:27.746Z,26.60
2023-05-19T13:44:55.910Z,26.66
2023-05-19T13:47:23.114Z,26.58
2023-05-19T13:49:50.796Z,26.65
2023-05-19T13:52:18.298Z,26.60
2023-05-19T13:54:45.119Z,27.01
2023-05-19T13:57:11.958Z,27.27
2023-05-19T13:59:45.854Z,27.66
2023-05-19T14:02:16.201Z,28.10
2023-05-19T14:04:43.254Z,28.02
2023-05-19T14:07:10.221Z,28.14
2023-05-19T14:09:37.241Z,28.24
2023-05-19T14:12:05.545Z,28.56
2023-05-19T14:14:33.658Z,28.72
2023-05-19T14:17:00.666Z,28.96
2023-05-19T14:19:29.576Z,28.82
2023-05-19T14:21:57.023Z,28.84
2023-05-19T14:24:23.869Z,29.33
2023-05-19T14:26:51.124Z,29.59
2023-05-19T14:29:18.255Z,29.15
2023-05-19T14:31:45.162Z,29.32
2023-05-19T14:34:12.385Z,29.63
2023-05-19T14:36:39.274Z,29.71
2023-05-19T14:39:06.075Z,29.58
2023-05-19T14:41:33.483Z,29.27
2023-05-19T14:44:00.256Z,29.32
2023-05-19T14:46:27.093Z,29.11
2023-05-19T14:48:54.200Z,29.26
2023-05-19T14:51:21.250Z,29.08
2023-05-19T14:53:49.717Z,29.19
2023-05-19T14:56:16.684Z,29.14
2023-05-19T14:58:43.623Z,29.29
2023-05-19T15:01:10.428Z,29.53
2023-05-19T15:03:38.154Z,29.83
2023-05-19T15:06:09.804Z,29.75
2023-05-19T15:08:37.270Z,29.76
2023-05-19T15:11:04.322Z,29.90
2023-05-19T15:13:31.186Z,29.83
2023-05-19T15:16:12.276Z,30.11
2023-05-19T15:18:43.239Z,30.19
2023-05-19T15:21:10.241Z,30.29
2023-05-19T15:23:37.116Z,30.36
2023-05-19T15:26:03.982Z,30.30
2023-05-19T15:28:31.524Z,30.10
2023-05-19T15:30:58.450Z,29.94
2023-05-19T15:33:25.359Z,30.24
2023-05-19T15:35:52.644Z,30.09
2023-05-19T15:38:19.607Z,29.97
2023-05-19T15:40:46.762Z,29.97
2023-05-19T15:43:13.820Z,30.25
2023-05-19T15:45:40.813Z,30.37
2023-05-19T15:48:08.205Z,30.60
2023-05-19T15:50:36.065Z,30.80
2023-05-19T15:53:03.386Z,31.05
2023-05-19T15:55:30.270Z,31.22
2023-05-19T15:57:57.127Z,31.36
2023-05-19T16:00:23.859Z,31.63
2023-05-19T16:02:51.222Z,31.50
2023-05-19T16:05:18.258Z,31.33
2023-05-19T16:07:45.354Z,31.29
2023-05-19T16:10:12.259Z,30.88
2023-05-19T16:12:39.222Z,30.48
2023-05-19T16:15:06.778Z,30.35
2023-05-19T16:17:34.311Z,30.36
2023-05-19T16:20:01.166Z,30.40
2023-05-19T16:22:29.639Z,30.54
2023-05-19T16:24:56.487Z,30.58
2023-05-19T16:27:23.336Z,30.76
2023-05-19T16:29:50.113Z,31.04
2023-05-19T16:32:17.060Z,31.08
2023-05-19T16:34:44.035Z,31.36
2023-05-19T16:37:10.738Z,31.54
2023-05-19T16:39:37.810Z,31.63
2023-05-19T16:42:04.730Z,31.63
2023-05-19T16:44:32.472Z,31.57
2023-05-19T16:46:59.382Z,31.60
2023-05-19T16:49:26.307Z,31.65
2023-05-19T16:51:53.783Z,31.58
2023-05-19T16:54:21.061Z,31.56
2023-05-19T16:56:49.001Z,31.61
2023-05-19T16:59:16.676Z,31.69
2023-05-19T17:01:43.866Z,31.67
2023-05-19T17:04:11.170Z,31.65
2023-05-19T17:06:37.945Z,31.70
2023-05-19T17:09:04.970Z,31.67
2023-05-19T17:11:32.147Z,31.74
2023-05-19T17:13:59.008Z,31.77
2023-05-19T17:16:25.770Z,31.82
2023-05-19T17:18:53.038Z,31.86
2023-05-19T17:21:20.036Z,32.03
2023-05-19T17:23:46.922Z,32.25
2023-05-19T17:26:15.374Z,32.43
2023-05-19T17:28:42.520Z,32.65
2023-05-19T17:31:11.310Z,32.59
2023-05-19T17:33:38.595Z,32.74
2023-05-19T17:36:06.137Z,32.81
2023-05-19T17:38:33.100Z,32.97
2023-05-19T17:41:09.034Z,33.07
2023-05-19T17:43:36.818Z,33.25
2023-05-19T17:46:04.816Z,33.35
2023-05-19T17:48:32.154Z,33.45
2023-05-19T17:50:59.062Z,33.53
2023-05-19T17:53:26.624Z,33.57
2023-05-19T17:55:57.596Z,33.73
2023-05-19T17:58:25.501Z,33.75
2023-05-19T18:00:53.354Z,33.84
2023-05-19T18:03:23.313Z,33.92
2023-05-19T18:05:51.129Z,33.83
2023-05-19T18:08:18.635Z,33.84
2023-05-19T18:10:47.877Z,33.84
2023-05-19T18:13:14.688Z,33.92
2023-05-19T18:15:41.821Z,34.06
2023-05-19T18:18:10.337Z,34.09
2023-05-19T18:20:43.575Z,34.28
2023-05-19T18:23:10.794Z,34.39
2023-05-19T18:25:37.911Z,34.53
2023-05-19T18:28:04.889Z,34.67
2023-05-19T18:30:32.278Z,34.79
2023-05-19T18:33:02.852Z,34.86
2023-05-19T18:35:30.259Z,35.06
2023-05-19T18:37:57.227Z,34.97
2023-05-19T18:40:24.110Z,35.03
2023-05-19T18:42:51.063Z,34.98
2023-05-19T18:45:18.137Z,35.06
2023-05-19T18:47:46.020Z,34.94
2023-05-19T18:50:13.853Z,34.91
2023-05-19T18:52:41.017Z,34.99
2023-05-19T18:55:08.697Z,34.84
2023-05-19T18:57:35.963Z,34.85
2023-05-19T19:00:03.722Z,34.79
2023-05-19T19:02:31.173Z,34.85
2023-05-19T19:04:58.251Z,34.84
2023-05-19T19:07:27.316Z,34.76
2023-05-19T19:09:54.088Z,34.90
2023-05-19T19:12:20.910Z,34.94
2023-05-19T19:14:48.209Z,34.95
2023-05-19T19:17:15.407Z,35.02
2023-05-19T19:19:42.544Z,35.06
2023-05-19T19:22:09.513Z,35.13
2023-05-19T19:24:36.792Z,35.19
2023-05-19T19:27:04.106Z,35.30
2023-05-19T19:29:31.643Z,35.36
2023-05-19T19:31:58.599Z,35.37
2023-05-19T19:34:25.827Z,35.22
2023-05-19T19:36:52.772Z,35.18
2023-05-19T19:39:19.722Z,35.21
2023-05-19T19:41:46.561Z,35.41
2023-05-19T19:44:13.544Z,35.53
2023-05-19T19:46:40.507Z,35.72
2023-05-19T19:49:07.914Z,35.88
2023-05-19T19:51:35.396Z,36.05
2023-05-19T19:54:02.220Z,36.16
2023-05-19T19:56:29.746Z,36.27
2023-05-19T19:58:58.835Z,36.38
2023-05-19T20:01:28.802Z,36.56
2023-05-19T20:03:56.444Z,36.52
2023-05-19T20:06:23.308Z,36.60
2023-05-19T20:08:50.220Z,36.74
2023-05-19T20:11:17.277Z,36.86
2023-05-19T20:13:44.126Z,36.99
2023-05-19T20:16:11.219Z,36.96
2023-05-19T20:18:38.919Z,37.03
2023-05-19T20:21:05.811Z,37.07
2023-05-19T20:23:32.720Z,36.91
2023-05-19T20:26:10.994Z,36.96
2023-05-19T20:28:38.905Z,36.99
2023-05-19T20:31:05.848Z,36.90
2023-05-19T20:33:32.641Z,36.88
2023-05-19T20:35:59.542Z,37.02
2023-05-19T20:38:26.223Z,37.04
2023-05-19T20:40:53.853Z,37.10
2023-05-19T20:43:20.871Z,37.18
2023-05-19T20:45:47.762Z,37.24
2023-05-19T20:48:17.801Z,37.27
2023-05-19T20:50:45.349Z,37.54
2023-05-19T20:53:12.423Z,37.73
2023-05-19T20:55:39.301Z,37.69
2023-05-19T20:58:06.315Z,37.80
2023-05-19T21:00:33.534Z,37.85
2023-05-19T21:03:01.265Z,37.96
2023-05-19T21:05:28.421Z,38.05
2023-05-19T21:07:57.586Z,38.18
2023-05-19T21:10:24.306Z,38.18
2023-05-19T21:12:51.117Z,38.27
2023-05-19T21:15:18.126Z,38.34
2023-05-19T21:17:46.134Z,38.42
2023-05-19T21:20:13.265Z,38.43
2023-05-19T21:22:40.481Z,38.44
2023-05-19T21:25:08.004Z,38.43
2023-05-19T21:27:35.953Z,38.57
2023-05-19T21:30:02.915Z,38.58
2023-05-19T21:32:30.873Z,38.64
2023-05-19T21:34:58.024Z,38.62
2023-05-19T21:37:24.996Z,38.69
2023-05-19T21:39:51.968Z,38.77
2023-05-19T21:42:18.827Z,38.80
2023-05-19T21:44:46.351Z,38.81
2023-05-19T21:47:13.152Z,38.88
2023-05-19T21:49:40.087Z,38.99
2023-05-19T21:52:07.258Z,39.01
2023-05-19T21:54:34.176Z,39.13
2023-05-19T21:57:01.803Z,39.23
2023-05-19T21:59:28.920Z,39.27
2023-05-19T22:01:55.961Z,39.26
2023-05-19T22:04:23.075Z,39.33
2023-05-19T22:06:49.921Z,39.34
2023-05-19T22:09:17.489Z,39.44
2023-05-19T22:11:44.702Z,39.53
2023-05-19T22:14:12.008Z,39.54
2023-05-19T22:16:38.785Z,39.55
2023-05-19T22:19:05.638Z,39.60
2023-05-19T22:21:32.590Z,39.64
2023-05-19T22:24:00.110Z,39.67
2023-05-19T22:26:27.051Z,39.67
2023-05-19T22:28:54.935Z,39.59
2023-05-19T22:31:21.713Z,39.70
2023-05-19T22:33:48.617Z,39.61
2023-05-19T22:36:15.629Z,39.66
2023-05-19T22:38:42.465Z,39.64
2023-05-19T22:41:09.382Z,39.69
2023-05-19T22:43:37.374Z,39.77
2023-05-19T22:46:04.722Z,39.77
2023-05-19T22:48:31.866Z,40.09
2023-05-19T22:50:58.747Z,40.10
2023-05-19T22:53:26.162Z,40.07
2023-05-19T22:55:52.861Z,40.17
2023-05-19T22:58:19.787Z,40.79
2023-05-19T23:00:46.769Z,41.24
2023-05-19T23:03:13.580Z,41.23
2023-05-19T23:05:40.931Z,41.32
2023-05-19T23:08:08.089Z,41.78
2023-05-19T23:10:34.934Z,42.11
2023-05-19T23:13:01.989Z,42.00
2023-05-19T23:15:29.147Z,42.31
2023-05-19T23:17:56.003Z,42.13
2023-05-19T23:20:23.017Z,42.18
2023-05-19T23:22:49.941Z,42.56
2023-05-19T23:25:16.930Z,42.95
2023-05-19T23:27:43.905Z,43.02
2023-05-19T23:30:11.239Z,42.94
2023-05-19T23:32:40.700Z,42.91
2023-05-19T23:35:11.138Z,42.70
2023-05-19T23:37:38.865Z,42.70
2023-05-19T23:40:06.740Z,42.45
2023-05-19T23:42:34.353Z,42.45
2023-05-19T23:45:01.696Z,42.43
2023-05-19T23:47:28.854Z,42.41
2023-05-19T23:49:55.880Z,42.43
2023-05-19T23:52:22.645Z,42.48
2023-05-19T23:54:49.563Z,42.48
2023-05-19T23:57:16.527Z,42.57
2023-05-19T23:59:43.524Z,42.76
